createdAt,value
2022-12-03T00:00:00.982Z,-3.19
2022-12-03T00:03:03.746Z,-3.17
2022-12-03T00:06:06.959Z,-3.28
2022-12-03T00:09:09.218Z,-3.24
2022-12-03T00:12:12.553Z,-3.46
2022-12-03T00:15:15.264Z,-3.53
2022-12-03T00:18:17.504Z,-3.36
2022-12-03T00:21:21.180Z,-3.34
2022-12-03T00:24:23.850Z,-3.45
2022-12-03T00:27:26.680Z,-3.41
2022-12-03T00:30:29.485Z,-3.40
2022-12-03T00:33:32.026Z,-3.41
2022-12-03T00:36:34.928Z,-3.52
2022-12-03T00:39:37.636Z,-3.36
2022-12-03T00:42:40.245Z,-3.44
2022-12-03T00:45:42.840Z,-3.41
2022-12-03T00:48:45.429Z,-3.57
2022-12-03T00:51:49.912Z,-3.62
2022-12-03T00:54:56.290Z,-3.47
2022-12-03T00:57:59.794Z,-3.41
2022-12-03T01:01:02.136Z,-3.42
2022-12-03T01:04:09.032Z,-3.39
2022-12-03T01:07:11.958Z,-3.32
2022-12-03T01:10:15.597Z,-3.49
2022-12-03T01:13:18.057Z,-3.46
2022-12-03T01:16:20.724Z,-3.60
2022-12-03T01:19:24.732Z,-3.56
2022-12-03T01:22:28.293Z,-3.67
2022-12-03T01:25:31.010Z,-3.80
2022-12-03T01:28:36.283Z,-3.56
2022-12-03T01:31:57.500Z,-3.51
2022-12-03T01:35:01.297Z,-3.33
2022-12-03T01:38:05.766Z,-3.22
2022-12-03T01:41:11.840Z,-3.27
2022-12-03T01:44:22.629Z,-3.25
2022-12-03T01:47:30.115Z,-3.24
2022-12-03T01:50:34.345Z,-3.19
2022-12-03T01:53:36.924Z,-3.35
2022-12-03T01:56:41.905Z,-3.51
2022-12-03T01:59:47.937Z,-3.60
2022-12-03T02:02:59.020Z,-3.59
2022-12-03T02:06:02.724Z,-3.35
2022-12-03T02:09:08.800Z,-3.40
2022-12-03T02:12:11.788Z,-3.46
2022-12-03T02:15:15.008Z,-3.59
2022-12-03T02:18:18.812Z,-3.40
2022-12-03T02:21:21.159Z,-3.22
2022-12-03T02:24:45.504Z,-3.34
2022-12-03T02:27:49.755Z,-3.31
2022-12-03T02:30:52.600Z,-3.21
2022-12-03T02:33:55.549Z,-3.44
2022-12-03T02:36:58.619Z,-3.10
2022-12-03T02:40:05.464Z,-3.16
2022-12-03T02:43:08.110Z,-3.08
2022-12-03T02:46:11.801Z,-2.99
2022-12-03T02:49:16.100Z,-3.02
2022-12-03T02:52:19.065Z,-2.89
2022-12-03T02:55:22.351Z,-2.84
2022-12-03T02:58:25.824Z,-3.02
2022-12-03T03:01:28.363Z,-2.96
2022-12-03T03:04:31.606Z,-3.04
2022-12-03T03:07:35.604Z,-3.37
2022-12-03T03:10:39.802Z,-2.93
2022-12-03T03:13:43.356Z,-3.17
2022-12-03T03:16:46.171Z,-3.06
2022-12-03T03:19:48.663Z,-3.07
2022-12-03T03:22:52.533Z,-3.11
2022-12-03T03:25:57.763Z,-3.09
2022-12-03T03:29:03.527Z,-3.27
2022-12-03T03:32:06.761Z,-2.98
2022-12-03T03:35:09.923Z,-2.95
2022-12-03T03:38:14.090Z,-2.93
2022-12-03T03:41:16.956Z,-3.01
2022-12-03T03:44:19.446Z,-3.00
2022-12-03T03:47:24.469Z,-2.99
2022-12-03T03:50:29.205Z,-3.20
2022-12-03T03:53:32.907Z,-3.30
2022-12-03T03:56:35.372Z,-3.14
2022-12-03T03:59:37.938Z,-3.10
2022-12-03T04:02:41.714Z,-2.97
2022-12-03T04:05:45.349Z,-2.92
2022-12-03T04:08:54.546Z,-3.08
2022-12-03T04:12:16.520Z,-3.18
2022-12-03T04:15:19.561Z,-3.03
2022-12-03T04:18:40.609Z,-3.16
2022-12-03T04:22:01.913Z,-3.06
2022-12-03T04:25:24.886Z,-3.02
2022-12-03T04:28:47.625Z,-2.99
2022-12-03T04:32:09.352Z,-2.82
2022-12-03T04:35:30.572Z,-2.84
2022-12-03T04:38:34.485Z,-2.74
2022-12-03T04:41:36.757Z,-2.72
2022-12-03T04:44:41.834Z,-2.74
2022-12-03T04:47:45.031Z,-2.61
2022-12-03T04:50:48.519Z,-2.66
2022-12-03T04:53:51.250Z,-2.69
2022-12-03T04:56:56.353Z,-2.79
2022-12-03T04:59:59.311Z,-2.52
2022-12-03T05:03:02.050Z,-2.41
2022-12-03T05:06:04.469Z,-2.52
2022-12-03T05:09:08.590Z,-2.52
2022-12-03T05:12:15.755Z,-2.43
2022-12-03T05:15:18.164Z,-2.43
2022-12-03T05:18:20.640Z,-2.39
2022-12-03T05:21:23.425Z,-2.49
2022-12-03T05:24:25.825Z,-2.65
2022-12-03T05:27:29.150Z,-2.55
2022-12-03T05:30:32.065Z,-2.57
2022-12-03T05:33:36.425Z,-2.47
2022-12-03T05:36:44.055Z,-2.51
2022-12-03T05:39:47.002Z,-2.44
2022-12-03T05:42:57.096Z,-2.39
2022-12-03T05:46:00.505Z,-2.40
2022-12-03T05:49:05.522Z,-2.49
2022-12-03T05:52:08.305Z,-2.43
2022-12-03T05:55:15.881Z,-2.67
2022-12-03T05:58:22.077Z,-2.66
2022-12-03T06:01:25.760Z,-2.63
2022-12-03T06:04:29.513Z,-2.49
2022-12-03T06:07:34.428Z,-2.53
2022-12-03T06:10:37.655Z,-2.47
2022-12-03T06:13:40.428Z,-2.62
2022-12-03T06:16:44.090Z,-2.59
2022-12-03T06:19:47.888Z,-2.45
2022-12-03T06:22:50.815Z,-2.34
2022-12-03T06:25:54.794Z,-2.44
2022-12-03T06:28:57.544Z,-2.45
2022-12-03T06:31:59.855Z,-2.55
2022-12-03T06:35:02.539Z,-2.35
2022-12-03T06:38:05.142Z,-2.45
2022-12-03T06:41:10.714Z,-2.69
2022-12-03T06:44:13.624Z,-2.51
2022-12-03T06:47:16.094Z,-2.43
2022-12-03T06:50:18.750Z,-2.50
2022-12-03T06:53:22.681Z,-2.31
2022-12-03T06:56:28.478Z,-2.38
2022-12-03T06:59:38.733Z,-2.18
2022-12-03T07:02:42.178Z,-2.20
2022-12-03T07:05:45.725Z,-2.29
2022-12-03T07:08:48.705Z,-2.49
2022-12-03T07:11:52.349Z,-2.57
2022-12-03T07:14:56.386Z,-2.48
2022-12-03T07:18:00.038Z,-2.42
2022-12-03T07:21:02.546Z,-2.43
2022-12-03T07:24:05.776Z,-2.42
2022-12-03T07:27:08.854Z,-2.36
2022-12-03T07:30:13.440Z,-2.56
2022-12-03T07:33:18.110Z,-2.45
2022-12-03T07:36:20.993Z,-2.48
2022-12-03T07:39:23.497Z,-2.28
2022-12-03T07:42:26.067Z,-2.20
2022-12-03T07:45:28.717Z,-2.33
2022-12-03T07:48:31.050Z,-2.20
2022-12-03T07:51:34.166Z,-2.08
2022-12-03T07:54:36.567Z,-2.00
2022-12-03T07:57:40.588Z,-2.16
2022-12-03T08:00:43.441Z,-2.06
2022-12-03T08:03:45.955Z,-2.12
2022-12-03T08:06:50.318Z,-2.14
2022-12-03T08:09:52.983Z,-2.22
2022-12-03T08:12:58.000Z,-2.30
2022-12-03T08:16:01.988Z,-2.21
2022-12-03T08:19:09.442Z,-2.32
2022-12-03T08:22:15.970Z,-2.15
2022-12-03T08:25:31.501Z,-2.15
2022-12-03T08:28:35.961Z,-2.22
2022-12-03T08:31:40.050Z,-1.98
2022-12-03T08:34:44.260Z,-2.05
2022-12-03T08:37:46.910Z,-2.12
2022-12-03T08:40:51.481Z,-2.16
2022-12-03T08:43:53.822Z,-2.07
2022-12-03T08:47:20.751Z,-1.96
2022-12-03T08:50:28.981Z,-1.92
2022-12-03T08:53:39.146Z,-1.85
2022-12-03T08:56:42.024Z,-2.03
2022-12-03T08:59:45.835Z,-1.97
2022-12-03T09:02:51.028Z,-1.91
2022-12-03T09:05:53.573Z,-1.96
2022-12-03T09:08:56.282Z,-1.76
2022-12-03T09:11:58.955Z,-1.78
2022-12-03T09:15:01.870Z,-1.74
2022-12-03T09:18:05.163Z,-1.78
2022-12-03T09:21:07.471Z,-1.74
2022-12-03T09:24:11.023Z,-1.84
2022-12-03T09:27:13.531Z,-1.83
2022-12-03T09:30:16.931Z,-2.01
2022-12-03T09:33:19.851Z,-1.96
2022-12-03T09:36:22.500Z,-1.87
2022-12-03T09:39:25.091Z,-1.93
2022-12-03T09:42:28.738Z,-1.82
2022-12-03T09:45:31.925Z,-1.77
2022-12-03T09:48:34.424Z,-1.73
2022-12-03T09:51:37.872Z,-1.78
2022-12-03T09:54:45.558Z,-1.73
2022-12-03T09:57:49.806Z,-1.84
2022-12-03T10:00:53.045Z,-1.70
2022-12-03T10:03:55.464Z,-1.85
2022-12-03T10:06:59.117Z,-1.96
2022-12-03T10:10:01.889Z,-1.88
2022-12-03T10:13:05.563Z,-1.94
2022-12-03T10:16:15.530Z,-1.86
2022-12-03T10:19:24.171Z,-1.84
2022-12-03T10:22:26.701Z,-1.79
2022-12-03T10:25:29.004Z,-1.67
2022-12-03T10:28:37.280Z,-1.55
2022-12-03T10:31:39.950Z,-1.63
2022-12-03T10:35:12.542Z,-1.52
2022-12-03T10:38:19.029Z,-1.45
2022-12-03T10:41:24.816Z,-1.46
2022-12-03T10:44:30.702Z,-1.53
2022-12-03T10:47:35.774Z,-1.61
2022-12-03T10:50:38.972Z,-1.58
2022-12-03T10:53:41.919Z,-1.62
2022-12-03T10:56:45.088Z,-1.39
2022-12-03T10:59:48.861Z,-1.51
2022-12-03T11:02:56.674Z,-1.27
2022-12-03T11:06:01.801Z,-1.27
2022-12-03T11:09:09.115Z,-1.11
2022-12-03T11:12:26.407Z,-1.13
2022-12-03T11:15:44.640Z,-0.98
2022-12-03T11:18:50.047Z,-0.76
2022-12-03T11:22:27.077Z,-1.08
2022-12-03T11:25:29.677Z,-0.83
2022-12-03T11:28:33.607Z,-1.01
2022-12-03T11:31:42.632Z,-1.09
2022-12-03T11:34:45.183Z,-1.15
2022-12-03T11:37:47.653Z,-0.86
2022-12-03T11:41:12.871Z,-0.95
2022-12-03T11:44:32.712Z,-0.79
2022-12-03T11:47:42.612Z,-0.73
2022-12-03T11:50:51.919Z,-0.71
2022-12-03T11:53:57.689Z,-0.65
2022-12-03T11:57:00.248Z,-0.60
2022-12-03T12:00:23.775Z,-0.64
2022-12-03T12:03:42.397Z,-0.85
2022-12-03T12:06:48.800Z,-0.42
2022-12-03T12:09:56.102Z,-0.25
2022-12-03T12:12:59.016Z,-0.49
2022-12-03T12:16:04.481Z,-0.35
2022-12-03T12:19:43.711Z,-0.30
2022-12-03T12:22:56.455Z,-0.59
2022-12-03T12:26:07.360Z,-0.57
2022-12-03T12:29:11.180Z,-1.03
2022-12-03T12:32:16.467Z,-0.55
2022-12-03T12:35:30.824Z,-0.81
2022-12-03T12:38:33.779Z,-0.71
2022-12-03T12:41:37.119Z,-0.85
2022-12-03T12:44:39.818Z,-0.75
2022-12-03T12:47:51.754Z,-0.88
2022-12-03T12:51:20.585Z,-1.20
2022-12-03T12:54:23.103Z,-1.15
2022-12-03T12:57:26.233Z,-1.02
2022-12-03T13:00:28.924Z,-1.03
2022-12-03T13:03:35.630Z,-1.01
2022-12-03T13:06:38.273Z,-1.10
2022-12-03T13:09:40.811Z,-1.26
2022-12-03T13:12:43.184Z,-1.15
2022-12-03T13:15:57.000Z,-1.10
2022-12-03T13:19:01.235Z,-1.02
2022-12-03T13:22:12.200Z,-1.18
2022-12-03T13:25:58.321Z,-1.19
2022-12-03T13:29:03.367Z,-1.18
2022-12-03T13:32:16.439Z,-1.36
2022-12-03T13:35:32.578Z,-1.10
2022-12-03T13:38:34.829Z,-1.12
2022-12-03T13:41:55.951Z,-1.19
2022-12-03T13:44:58.454Z,-1.30
2022-12-03T13:48:03.092Z,-1.29
2022-12-03T13:51:24.342Z,-1.35
2022-12-03T13:54:31.339Z,-1.25
2022-12-03T13:57:34.401Z,-1.27
2022-12-03T14:00:37.645Z,-1.32
2022-12-03T14:03:40.435Z,-1.37
2022-12-03T14:06:43.220Z,-1.24
2022-12-03T14:09:47.046Z,-1.23
2022-12-03T14:12:49.781Z,-1.34
2022-12-03T14:15:52.077Z,-1.36
2022-12-03T14:18:54.521Z,-1.36
2022-12-03T14:21:57.609Z,-1.46
2022-12-03T14:25:00.538Z,-1.70
2022-12-03T14:28:09.908Z,-1.43
2022-12-03T14:31:13.385Z,-1.48
2022-12-03T14:34:16.022Z,-1.35
2022-12-03T14:37:19.364Z,-1.36
2022-12-03T14:40:22.296Z,-1.44
2022-12-03T14:43:25.200Z,-1.38
2022-12-03T14:46:27.854Z,-1.29
2022-12-03T14:49:30.691Z,-1.46
2022-12-03T14:52:34.989Z,-1.33
2022-12-03T14:55:38.025Z,-1.49
2022-12-03T14:58:40.540Z,-1.55
2022-12-03T15:01:44.224Z,-1.43
2022-12-03T15:04:46.727Z,-1.37
2022-12-03T15:07:49.086Z,-1.47
2022-12-03T15:10:51.609Z,-1.56
2022-12-03T15:13:54.265Z,-1.58
2022-12-03T15:16:58.151Z,-1.66
2022-12-03T15:20:01.873Z,-1.52
2022-12-03T15:23:04.705Z,-1.54
2022-12-03T15:26:07.581Z,-1.47
2022-12-03T15:29:10.992Z,-1.48
2022-12-03T15:32:13.548Z,-1.42
2022-12-03T15:35:18.693Z,-1.50
2022-12-03T15:38:21.370Z,-1.46
2022-12-03T15:41:30.121Z,-1.37
2022-12-03T15:44:33.452Z,-1.49
2022-12-03T15:47:36.332Z,-1.49
2022-12-03T15:50:40.715Z,-1.38
2022-12-03T15:53:43.519Z,-1.50
2022-12-03T15:56:45.925Z,-1.43
2022-12-03T15:59:48.481Z,-1.67
2022-12-03T16:02:53.151Z,-1.60
2022-12-03T16:05:56.114Z,-1.52
2022-12-03T16:08:58.844Z,-1.63
2022-12-03T16:12:01.526Z,-1.37
2022-12-03T16:15:04.465Z,-1.49
2022-12-03T16:18:06.969Z,-1.45
2022-12-03T16:21:09.344Z,-1.49
2022-12-03T16:24:11.953Z,-1.52
2022-12-03T16:27:14.370Z,-1.46
2022-12-03T16:30:16.995Z,-1.52
2022-12-03T16:33:25.627Z,-1.47
2022-12-03T16:36:32.859Z,-1.60
2022-12-03T16:39:35.912Z,-1.73
2022-12-03T16:42:38.435Z,-1.52
2022-12-03T16:46:01.161Z,-1.53
2022-12-03T16:49:04.345Z,-1.51
2022-12-03T16:52:06.803Z,-1.51
2022-12-03T16:55:10.362Z,-1.45
2022-12-03T16:58:13.559Z,-1.68
2022-12-03T17:01:16.841Z,-1.50
2022-12-03T17:04:19.493Z,-1.54
2022-12-03T17:07:24.139Z,-1.50
2022-12-03T17:10:27.169Z,-1.56
2022-12-03T17:13:29.988Z,-1.43
2022-12-03T17:16:33.039Z,-1.46
2022-12-03T17:19:35.393Z,-1.56
2022-12-03T17:22:38.528Z,-1.68
2022-12-03T17:25:41.717Z,-1.63
2022-12-03T17:28:50.084Z,-1.62
2022-12-03T17:31:52.411Z,-1.49
2022-12-03T17:34:55.308Z,-1.52
2022-12-03T17:37:58.179Z,-1.34
2022-12-03T17:41:03.117Z,-1.31
2022-12-03T17:44:10.729Z,-1.41
2022-12-03T17:47:15.716Z,-1.49
2022-12-03T17:50:18.804Z,-1.31
2022-12-03T17:53:23.296Z,-1.31
2022-12-03T17:56:27.692Z,-1.25
2022-12-03T17:59:30.244Z,-1.22
2022-12-03T18:02:34.530Z,-1.29
2022-12-03T18:05:37.737Z,-1.36
2022-12-03T18:08:40.159Z,-1.31
2022-12-03T18:11:47.310Z,-1.30
2022-12-03T18:14:52.260Z,-1.27
2022-12-03T18:17:54.741Z,-1.27
2022-12-03T18:21:02.085Z,-1.12
2022-12-03T18:24:05.493Z,-1.19
2022-12-03T18:27:09.260Z,-1.14
2022-12-03T18:30:13.061Z,-1.11
2022-12-03T18:33:16.754Z,-1.08
2022-12-03T18:36:26.484Z,-1.11
2022-12-03T18:39:35.819Z,-1.07
2022-12-03T18:42:38.599Z,-1.06
2022-12-03T18:45:41.865Z,-1.12
2022-12-03T18:48:49.195Z,-1.20
2022-12-03T18:51:58.974Z,-1.22
2022-12-03T18:55:03.494Z,-1.22
2022-12-03T18:58:06.810Z,-1.10
2022-12-03T19:01:17.027Z,-1.11
2022-12-03T19:04:19.630Z,-1.07
2022-12-03T19:07:27.592Z,-1.03
2022-12-03T19:10:30.406Z,-1.06
2022-12-03T19:13:33.514Z,-0.96
2022-12-03T19:16:37.077Z,-1.06
2022-12-03T19:19:39.552Z,-0.97
2022-12-03T19:22:42.687Z,-0.99
2022-12-03T19:25:58.698Z,-1.09
2022-12-03T19:29:01.250Z,-0.82
2022-12-03T19:32:04.112Z,-1.04
2022-12-03T19:35:07.887Z,-0.85
2022-12-03T19:38:10.448Z,-0.78
2022-12-03T19:41:12.938Z,-0.85
2022-12-03T19:44:17.517Z,-0.97
2022-12-03T19:47:21.021Z,-0.85
2022-12-03T19:50:34.880Z,-0.80
2022-12-03T19:57:07.130Z,-0.76
2022-12-03T20:00:10.155Z,-0.70
2022-12-03T20:03:14.692Z,-0.80
2022-12-03T20:06:19.001Z,-0.84
2022-12-03T20:09:22.655Z,-0.75
2022-12-03T20:12:24.928Z,-0.60
2022-12-03T20:15:27.576Z,-0.70
2022-12-03T20:18:30.059Z,-0.66
2022-12-03T20:21:34.519Z,-0.62
2022-12-03T20:24:36.832Z,-0.65
2022-12-03T20:27:39.309Z,-0.68
2022-12-03T20:30:42.620Z,-0.72
2022-12-03T20:33:47.120Z,-0.63
2022-12-03T20:36:49.531Z,-0.67
2022-12-03T20:39:52.096Z,-0.69
2022-12-03T20:42:54.624Z,-0.51
2022-12-03T20:46:02.564Z,-0.50
2022-12-03T20:49:05.575Z,-0.34
2022-12-03T20:52:08.015Z,-0.46
2022-12-03T20:55:10.760Z,-0.45
2022-12-03T20:58:13.134Z,-0.31
2022-12-03T21:01:18.296Z,-0.35
2022-12-03T21:04:20.768Z,-0.36
2022-12-03T21:07:23.237Z,-0.32
2022-12-03T21:10:44.649Z,-0.41
2022-12-03T21:13:47.931Z,-0.43
2022-12-03T21:17:07.763Z,-0.35
2022-12-03T21:20:12.952Z,-0.30
2022-12-03T21:23:16.947Z,-0.42
2022-12-03T21:26:22.859Z,-0.49
2022-12-03T21:29:25.646Z,-0.46
2022-12-03T21:32:28.166Z,-0.34
2022-12-03T21:35:30.863Z,-0.30
2022-12-03T21:38:34.491Z,-0.26
2022-12-03T21:41:37.048Z,-0.26
2022-12-03T21:44:39.598Z,-0.34
2022-12-03T21:47:41.990Z,-0.17
2022-12-03T21:50:44.848Z,-0.37
2022-12-03T21:53:47.348Z,-0.29
2022-12-03T21:56:49.643Z,-0.19
2022-12-03T21:59:52.032Z,-0.33
2022-12-03T22:02:54.614Z,-0.24
2022-12-03T22:05:57.087Z,-0.18
2022-12-03T22:08:59.491Z,-0.23
2022-12-03T22:12:01.865Z,-0.27
2022-12-03T22:15:04.995Z,-0.23
2022-12-03T22:18:07.472Z,-0.21
2022-12-03T22:21:12.944Z,-0.09
2022-12-03T22:24:15.414Z,-0.06
2022-12-03T22:27:17.792Z,-0.05
2022-12-03T22:30:20.456Z,-0.05
2022-12-03T22:33:23.243Z,-0.19
2022-12-03T22:36:25.616Z,-0.04
2022-12-03T22:39:27.988Z,-0.12
2022-12-03T22:42:30.347Z,0.01
2022-12-03T22:45:32.712Z,0.02
2022-12-03T22:48:35.698Z,-0.14
2022-12-03T22:51:38.591Z,-0.19
2022-12-03T22:54:40.932Z,-0.01
2022-12-03T22:57:43.338Z,0.01
2022-12-03T23:00:45.966Z,0.02
2022-12-03T23:03:48.506Z,0.04
2022-12-03T23:06:50.924Z,0.04
2022-12-03T23:09:53.714Z,-0.03
2022-12-03T23:12:56.289Z,-0.15
2022-12-03T23:15:58.756Z,0.10
2022-12-03T23:19:02.373Z,0.12
2022-12-03T23:22:04.838Z,0.01
2022-12-03T23:25:07.712Z,0.17
2022-12-03T23:28:10.744Z,0.19
2022-12-03T23:31:17.644Z,0.21
2022-12-03T23:34:20.163Z,0.18
2022-12-03T23:37:23.000Z,0.04
2022-12-03T23:40:25.338Z,0.19
2022-12-03T23:43:27.757Z,0.14
2022-12-03T23:46:30.324Z,0.09
2022-12-03T23:49:32.770Z,0.15
2022-12-03T23:52:36.631Z,0.16
2022-12-03T23:55:41.863Z,0.11
2022-12-03T23:58:45.254Z,0.24
